createdAt,value
2019-05-13T00:00:37.294Z,1.80
2019-05-13T00:03:17.474Z,2.27
2019-05-13T00:05:55.771Z,2.25
2019-05-13T00:08:44.006Z,2.00
2019-05-13T00:11:44.192Z,2.30
2019-05-13T00:14:24.741Z,2.17
2019-05-13T00:17:04.621Z,2.10
2019-05-13T00:19:44.777Z,2.02
2019-05-13T00:22:24.850Z,1.80
2019-05-13T00:25:05.162Z,1.95
2019-05-13T00:27:45.191Z,1.62
2019-05-13T00:30:26.534Z,2.35
2019-05-13T00:33:06.552Z,2.42
2019-05-13T00:35:46.816Z,2.08
2019-05-13T00:38:27.623Z,2.20
2019-05-13T00:41:07.851Z,2.55
2019-05-13T00:43:35.651Z,1.82
2019-05-13T00:46:03.947Z,1.70
2019-05-13T00:49:05.121Z,2.00
2019-05-13T00:51:45.346Z,1.65
2019-05-13T00:54:13.405Z,2.35
2019-05-13T00:57:08.157Z,2.02
2019-05-13T00:59:48.739Z,1.55
2019-05-13T01:02:28.993Z,2.25
2019-05-13T01:05:08.812Z,1.60
2019-05-13T01:07:49.231Z,2.00
2019-05-13T01:10:29.215Z,2.00
2019-05-13T01:13:09.478Z,2.55
2019-05-13T01:15:49.398Z,2.17
2019-05-13T01:18:29.934Z,1.95
2019-05-13T01:20:57.888Z,1.80
2019-05-13T01:23:44.757Z,2.12
2019-05-13T01:26:26.389Z,2.77
2019-05-13T01:29:07.179Z,2.25
2019-05-13T01:31:47.726Z,1.90
2019-05-13T01:34:27.862Z,2.20
2019-05-13T01:37:07.754Z,2.27
2019-05-13T01:39:47.796Z,2.05
2019-05-13T01:42:28.178Z,2.22
2019-05-13T01:45:08.195Z,2.00
2019-05-13T01:47:48.444Z,2.25
2019-05-13T01:50:28.489Z,2.33
2019-05-13T01:53:10.593Z,2.42
2019-05-13T01:55:53.212Z,2.80
2019-05-13T01:58:34.004Z,2.62
2019-05-13T02:01:14.527Z,2.33
2019-05-13T02:03:54.652Z,2.30
2019-05-13T02:06:34.998Z,2.55
2019-05-13T02:09:14.581Z,2.62
2019-05-13T02:11:55.286Z,2.30
2019-05-13T02:14:35.917Z,2.52
2019-05-13T02:17:16.181Z,1.90
2019-05-13T02:19:56.342Z,2.40
2019-05-13T02:22:36.527Z,2.35
2019-05-13T02:25:16.474Z,1.80
2019-05-13T02:27:56.258Z,2.50
2019-05-13T02:30:36.751Z,2.80
2019-05-13T02:33:25.745Z,1.82
2019-05-13T02:36:27.841Z,1.80
2019-05-13T02:39:08.651Z,2.30
2019-05-13T02:41:36.864Z,2.20
2019-05-13T02:44:24.302Z,2.20
2019-05-13T02:47:04.958Z,2.70
2019-05-13T02:49:44.775Z,2.45
2019-05-13T02:52:24.744Z,2.80
2019-05-13T02:55:05.334Z,2.33
2019-05-13T02:57:45.552Z,2.30
2019-05-13T03:00:25.879Z,2.25
2019-05-13T03:03:06.053Z,2.55
2019-05-13T03:05:46.292Z,2.42
2019-05-13T03:08:41.158Z,2.55
2019-05-13T03:11:08.000Z,2.70
2019-05-13T03:13:48.826Z,2.42
2019-05-13T03:20:04.325Z,2.87
2019-05-13T03:22:43.887Z,2.90
2019-05-13T03:25:24.355Z,2.72
2019-05-13T03:28:03.947Z,3.25
2019-05-13T03:30:46.095Z,3.50
2019-05-13T03:33:28.598Z,4.67
2019-05-13T03:36:15.319Z,4.00
2019-05-13T03:39:04.633Z,4.22
2019-05-13T03:41:35.431Z,3.20
2019-05-13T03:44:15.815Z,3.33
2019-05-13T03:46:56.099Z,3.90
2019-05-13T03:49:36.280Z,3.55
2019-05-13T03:52:16.010Z,3.83
2019-05-13T03:54:56.529Z,2.80
2019-05-13T03:57:36.834Z,3.20
2019-05-13T04:00:16.579Z,3.00
2019-05-13T04:02:57.067Z,2.70
2019-05-13T04:05:37.208Z,2.30
2019-05-13T04:08:16.660Z,2.35
2019-05-13T04:11:02.658Z,2.58
2019-05-13T04:13:42.925Z,2.45
2019-05-13T04:16:24.087Z,2.37
2019-05-13T04:19:05.002Z,2.10
2019-05-13T04:21:45.296Z,2.23
2019-05-13T04:24:25.139Z,1.60
2019-05-13T04:27:05.364Z,2.20
2019-05-13T04:29:46.287Z,1.80
2019-05-13T04:32:29.032Z,1.50
2019-05-13T04:35:12.226Z,1.57
2019-05-13T04:37:52.703Z,1.60
2019-05-13T04:40:33.881Z,1.60
2019-05-13T04:43:14.398Z,1.53
2019-05-13T04:45:54.315Z,1.50
2019-05-13T04:48:39.300Z,1.53
2019-05-13T04:51:18.013Z,1.63
2019-05-13T04:53:47.046Z,1.60
2019-05-13T04:56:27.180Z,2.33
2019-05-13T04:59:07.374Z,1.40
2019-05-13T05:01:57.808Z,1.60
2019-05-13T05:04:33.975Z,1.40
2019-05-13T05:07:12.737Z,1.33
2019-05-13T05:10:15.960Z,1.50
2019-05-13T05:12:37.209Z,1.10
2019-05-13T05:15:17.774Z,1.50
2019-05-13T05:18:24.750Z,1.60
2019-05-13T05:21:34.622Z,2.80
2019-05-13T05:24:15.511Z,3.43
2019-05-13T05:26:55.270Z,11.80
2019-05-13T05:33:15.094Z,10.90
2019-05-13T05:35:55.870Z,7.33
2019-05-13T05:38:35.981Z,7.23
2019-05-13T05:41:15.885Z,5.50
2019-05-13T05:44:05.162Z,3.00
2019-05-13T05:49:56.407Z,4.23
2019-05-13T05:52:36.706Z,4.40
2019-05-13T05:55:16.928Z,2.60
2019-05-13T05:57:56.923Z,4.40
2019-05-13T06:00:37.232Z,6.83
2019-05-13T06:03:16.811Z,2.73
2019-05-13T06:05:56.823Z,5.83
2019-05-13T06:08:37.053Z,5.50
2019-05-13T06:11:17.886Z,5.00
2019-05-13T06:13:58.155Z,5.37
2019-05-13T06:16:39.304Z,4.13
2019-05-13T06:19:22.355Z,3.10
2019-05-13T06:22:02.805Z,2.80
2019-05-13T06:24:31.595Z,2.90
2019-05-13T06:27:21.254Z,4.00
2019-05-13T06:30:21.752Z,2.27
2019-05-13T06:33:02.320Z,2.40
2019-05-13T06:35:44.596Z,2.57
2019-05-13T06:38:24.056Z,2.70
2019-05-13T06:41:10.860Z,2.50
2019-05-13T06:43:47.141Z,2.47
2019-05-13T06:46:27.284Z,2.67
2019-05-13T06:49:07.616Z,5.57
2019-05-13T06:51:47.424Z,2.50
2019-05-13T06:54:27.412Z,2.90
2019-05-13T06:57:07.213Z,2.83
2019-05-13T06:59:47.837Z,1.97
2019-05-13T07:02:28.176Z,4.07
2019-05-13T07:05:09.026Z,2.07
2019-05-13T07:07:51.185Z,1.93
2019-05-13T07:10:32.122Z,2.20
2019-05-13T07:13:12.817Z,1.30
2019-05-13T07:15:52.859Z,1.63
2019-05-13T07:18:33.262Z,2.08
2019-05-13T07:21:13.231Z,1.70
2019-05-13T07:23:55.198Z,2.13
2019-05-13T07:26:35.227Z,2.90
2019-05-13T07:29:15.946Z,8.63
2019-05-13T07:31:56.727Z,6.67
2019-05-13T07:34:36.662Z,11.03
2019-05-13T07:37:16.854Z,9.10
2019-05-13T07:39:56.600Z,3.60
2019-05-13T07:42:36.601Z,6.70
2019-05-13T07:45:16.702Z,6.57
2019-05-13T07:47:56.412Z,3.50
2019-05-13T07:50:51.239Z,8.03
2019-05-13T07:53:22.122Z,3.13
2019-05-13T07:56:02.007Z,2.90
2019-05-13T07:58:42.217Z,4.87
2019-05-13T08:01:22.288Z,2.30
2019-05-13T08:04:02.914Z,6.03
2019-05-13T08:06:42.654Z,4.37
2019-05-13T08:09:22.524Z,2.00
2019-05-13T08:12:10.107Z,1.97
2019-05-13T08:14:45.074Z,3.27
2019-05-13T08:17:25.001Z,4.63
2019-05-13T08:20:04.991Z,1.63
2019-05-13T08:22:45.874Z,1.40
2019-05-13T08:25:26.353Z,1.87
2019-05-13T08:28:06.431Z,2.93
2019-05-13T08:30:46.458Z,2.70
2019-05-13T08:33:26.512Z,2.07
2019-05-13T08:36:07.204Z,4.90
2019-05-13T08:38:47.685Z,2.63
2019-05-13T08:41:27.879Z,2.73
2019-05-13T08:43:55.300Z,3.37
2019-05-13T08:46:42.658Z,2.30
2019-05-13T08:49:11.855Z,3.10
2019-05-13T08:52:18.279Z,2.87
2019-05-13T08:55:01.403Z,2.23
2019-05-13T08:57:42.039Z,4.37
2019-05-13T09:00:22.338Z,2.33
2019-05-13T09:03:05.637Z,1.30
2019-05-13T09:05:44.288Z,3.00
2019-05-13T09:08:24.348Z,4.90
2019-05-13T09:11:05.733Z,3.33
2019-05-13T09:13:47.156Z,5.33
2019-05-13T09:16:28.149Z,4.40
2019-05-13T09:19:12.599Z,6.53
2019-05-13T09:21:52.559Z,5.40
2019-05-13T09:24:37.782Z,2.43
2019-05-13T09:27:16.286Z,1.70
2019-05-13T09:29:56.844Z,1.80
2019-05-13T09:32:37.537Z,3.47
2019-05-13T09:35:17.873Z,4.90
2019-05-13T09:37:57.802Z,1.50
2019-05-13T09:40:38.078Z,3.90
2019-05-13T09:43:18.266Z,2.50
2019-05-13T09:45:57.976Z,2.93
2019-05-13T09:48:38.321Z,3.00
2019-05-13T09:51:18.537Z,2.20
2019-05-13T09:54:01.129Z,2.50
2019-05-13T09:56:41.388Z,4.80
2019-05-13T09:59:22.940Z,4.23
2019-05-13T10:02:03.400Z,2.30
2019-05-13T10:04:46.175Z,2.50
2019-05-13T10:07:27.034Z,2.27
2019-05-13T10:10:07.317Z,2.60
2019-05-13T10:13:06.092Z,2.40
2019-05-13T10:15:29.351Z,3.00
2019-05-13T10:18:12.353Z,4.30
2019-05-13T10:20:52.890Z,3.50
2019-05-13T10:23:33.610Z,2.20
2019-05-13T10:26:14.557Z,4.37
2019-05-13T10:28:55.141Z,1.97
2019-05-13T10:31:35.650Z,2.97
2019-05-13T10:34:16.104Z,1.90
2019-05-13T10:36:56.346Z,3.20
2019-05-13T10:39:36.355Z,1.50
2019-05-13T10:42:16.322Z,2.87
2019-05-13T10:44:56.535Z,2.33
2019-05-13T10:47:36.602Z,2.70
2019-05-13T10:50:17.222Z,2.20
2019-05-13T10:52:57.886Z,1.97
2019-05-13T10:55:43.205Z,1.73
2019-05-13T10:58:42.605Z,1.50
2019-05-13T11:01:29.143Z,2.47
2019-05-13T11:04:13.373Z,1.60
2019-05-13T11:06:52.528Z,2.07
2019-05-13T11:09:32.685Z,1.80
2019-05-13T11:12:12.630Z,1.80
2019-05-13T11:14:55.088Z,2.30
2019-05-13T11:17:35.371Z,1.90
2019-05-13T11:20:15.890Z,1.90
2019-05-13T11:26:18.331Z,1.50
2019-05-13T11:29:02.623Z,2.67
2019-05-13T11:31:42.774Z,1.50
2019-05-13T11:34:23.609Z,1.33
2019-05-13T11:37:04.128Z,2.60
2019-05-13T11:39:43.979Z,2.50
2019-05-13T11:42:13.656Z,3.33
2019-05-13T11:45:21.561Z,1.70
2019-05-13T11:48:08.030Z,1.33
2019-05-13T11:50:50.484Z,2.80
2019-05-13T11:53:33.840Z,2.63
2019-05-13T11:56:14.375Z,4.93
2019-05-13T11:58:56.159Z,1.50
2019-05-13T12:01:36.794Z,1.50
2019-05-13T12:04:16.770Z,0.90
2019-05-13T12:06:56.721Z,1.20
2019-05-13T12:09:36.902Z,1.33
2019-05-13T12:12:17.218Z,1.57
2019-05-13T12:15:22.227Z,1.20
2019-05-13T12:17:42.797Z,1.53
2019-05-13T12:20:22.945Z,1.10
2019-05-13T12:23:03.492Z,1.47
2019-05-13T12:25:45.048Z,1.10
2019-05-13T12:28:25.831Z,1.50
2019-05-13T12:31:05.866Z,1.13
2019-05-13T12:33:45.459Z,1.20
2019-05-13T12:36:25.458Z,1.10
2019-05-13T12:39:06.855Z,1.07
2019-05-13T12:41:46.598Z,1.13
2019-05-13T12:44:28.035Z,0.80
2019-05-13T12:47:11.409Z,1.07
2019-05-13T12:49:52.247Z,0.93
2019-05-13T12:52:32.745Z,1.67
2019-05-13T12:55:14.581Z,1.30
2019-05-13T12:57:55.352Z,2.20
2019-05-13T13:00:36.686Z,2.13
2019-05-13T13:03:17.002Z,3.63
2019-05-13T13:06:20.670Z,2.00
2019-05-13T13:08:44.683Z,1.00
2019-05-13T13:11:22.916Z,1.33
2019-05-13T13:14:05.916Z,1.27
2019-05-13T13:16:46.462Z,2.43
2019-05-13T13:19:29.069Z,2.90
2019-05-13T13:22:12.950Z,2.70
2019-05-13T13:24:55.939Z,2.40
2019-05-13T13:28:00.020Z,2.30
2019-05-13T13:30:16.475Z,3.50
2019-05-13T13:32:56.883Z,1.50
2019-05-13T13:35:36.340Z,2.30
2019-05-13T13:38:16.668Z,1.33
2019-05-13T13:40:56.524Z,1.50
2019-05-13T13:43:25.205Z,1.27
2019-05-13T13:46:36.874Z,1.77
2019-05-13T13:49:14.938Z,2.60
2019-05-13T13:51:55.190Z,1.87
2019-05-13T13:54:37.258Z,3.40
2019-05-13T13:57:17.261Z,2.90
2019-05-13T14:00:29.608Z,2.50
2019-05-13T14:02:43.088Z,3.00
2019-05-13T14:05:24.730Z,2.50
2019-05-13T14:08:06.138Z,1.30
2019-05-13T14:10:47.885Z,1.20
2019-05-13T14:13:27.867Z,1.97
2019-05-13T14:16:22.418Z,1.40
2019-05-13T14:18:52.338Z,3.60
2019-05-13T14:21:35.210Z,2.43
2019-05-13T14:24:14.882Z,2.90
2019-05-13T14:26:55.090Z,3.00
2019-05-13T14:29:40.537Z,4.30
2019-05-13T14:32:18.203Z,1.67
2019-05-13T14:34:58.406Z,3.63
2019-05-13T14:37:38.594Z,1.50
2019-05-13T14:40:18.858Z,1.43
2019-05-13T14:42:58.458Z,2.33
2019-05-13T14:45:38.350Z,1.40
2019-05-13T14:48:22.062Z,3.00
2019-05-13T14:51:02.086Z,4.03
2019-05-13T14:53:42.330Z,3.63
2019-05-13T14:56:22.475Z,2.80
2019-05-13T14:59:02.760Z,1.60
2019-05-13T15:01:43.082Z,2.20
2019-05-13T15:04:23.890Z,1.93
2019-05-13T15:07:04.562Z,1.70
2019-05-13T15:09:45.047Z,2.80
2019-05-13T15:12:24.768Z,2.60
2019-05-13T15:15:05.574Z,3.77
2019-05-13T15:17:45.791Z,1.90
2019-05-13T15:20:25.937Z,1.30
2019-05-13T15:23:06.680Z,1.53
2019-05-13T15:25:47.090Z,2.50
2019-05-13T15:28:27.363Z,2.77
2019-05-13T15:31:07.298Z,1.87
2019-05-13T15:33:47.242Z,2.10
2019-05-13T15:36:27.803Z,4.50
2019-05-13T15:38:54.934Z,5.90
2019-05-13T15:41:42.149Z,3.93
2019-05-13T15:44:23.135Z,2.00
2019-05-13T15:46:52.368Z,4.10
2019-05-13T15:49:47.326Z,2.33
2019-05-13T15:52:27.706Z,3.90
2019-05-13T15:55:08.658Z,3.87
2019-05-13T15:57:48.994Z,1.97
2019-05-13T16:00:29.067Z,1.90
2019-05-13T16:03:09.370Z,1.83
2019-05-13T16:05:51.480Z,3.57
2019-05-13T16:08:32.146Z,2.60
2019-05-13T16:11:12.887Z,2.20
2019-05-13T16:13:52.911Z,6.00
2019-05-13T16:16:32.791Z,3.30
2019-05-13T16:19:14.309Z,2.40
2019-05-13T16:21:54.937Z,3.03
2019-05-13T16:24:35.155Z,2.17
2019-05-13T16:27:15.044Z,3.97
2019-05-13T16:29:54.838Z,3.37
2019-05-13T16:32:34.831Z,4.97
2019-05-13T16:35:15.100Z,3.50
2019-05-13T16:37:54.922Z,2.70
2019-05-13T16:40:36.711Z,3.10
2019-05-13T16:43:17.499Z,1.77
2019-05-13T16:45:58.799Z,2.37
2019-05-13T16:48:41.609Z,4.50
2019-05-13T16:51:22.673Z,1.90
2019-05-13T16:53:52.302Z,2.30
2019-05-13T16:56:46.118Z,1.30
2019-05-13T16:59:26.486Z,3.27
2019-05-13T17:02:06.602Z,2.83
2019-05-13T17:04:46.868Z,1.87
2019-05-13T17:07:26.979Z,1.50
2019-05-13T17:10:07.454Z,2.00
2019-05-13T17:12:47.473Z,1.63
2019-05-13T17:15:27.258Z,1.60
2019-05-13T17:18:11.868Z,1.40
2019-05-13T17:20:51.909Z,1.97
2019-05-13T17:23:32.061Z,1.73
2019-05-13T17:26:12.402Z,1.23
2019-05-13T17:31:41.643Z,1.67
2019-05-13T17:34:11.850Z,1.70
2019-05-13T17:37:05.380Z,1.23
2019-05-13T17:39:45.719Z,1.70
2019-05-13T17:42:25.505Z,2.13
2019-05-13T17:45:05.929Z,4.30
2019-05-13T17:47:46.258Z,2.50
2019-05-13T17:50:26.005Z,2.33
2019-05-13T17:53:06.378Z,2.00
2019-05-13T17:55:46.275Z,2.30
2019-05-13T17:58:31.438Z,1.67
2019-05-13T18:01:13.894Z,7.40
2019-05-13T18:03:53.943Z,11.30
2019-05-13T18:06:33.964Z,3.30
2019-05-13T18:09:14.442Z,3.90
2019-05-13T18:11:55.318Z,5.40
2019-05-13T18:14:35.918Z,4.53
2019-05-13T18:17:16.517Z,4.00
2019-05-13T18:19:57.043Z,1.97
2019-05-13T18:22:37.462Z,2.73
2019-05-13T18:25:17.438Z,2.40
2019-05-13T18:27:57.585Z,3.10
2019-05-13T18:30:37.318Z,4.00
2019-05-13T18:33:17.849Z,8.43
2019-05-13T18:35:57.616Z,15.50
2019-05-13T18:38:38.044Z,12.80
2019-05-13T18:41:18.574Z,15.07
2019-05-13T18:44:01.375Z,12.17
2019-05-13T18:46:42.372Z,7.63
2019-05-13T18:49:24.502Z,7.00
2019-05-13T18:52:04.730Z,5.60
2019-05-13T18:54:44.663Z,4.67
2019-05-13T18:57:24.925Z,3.37
2019-05-13T18:59:52.863Z,7.20
2019-05-13T19:02:41.467Z,4.80
2019-05-13T19:05:42.642Z,3.50
2019-05-13T19:08:23.343Z,2.90
2019-05-13T19:11:04.706Z,2.80
2019-05-13T19:13:45.444Z,3.30
2019-05-13T19:16:25.625Z,2.90
2019-05-13T19:19:13.240Z,3.20
2019-05-13T19:21:48.190Z,4.00
2019-05-13T19:24:28.261Z,4.30
2019-05-13T19:27:08.350Z,3.43
2019-05-13T19:29:49.447Z,3.93
2019-05-13T19:32:29.369Z,3.80
2019-05-13T19:35:11.774Z,3.83
2019-05-13T19:37:51.734Z,4.17
2019-05-13T19:40:32.818Z,3.77
2019-05-13T19:43:12.954Z,3.07
2019-05-13T19:45:53.067Z,4.20
2019-05-13T19:48:32.974Z,5.23
2019-05-13T19:51:13.061Z,5.00
2019-05-13T19:53:53.065Z,2.80
2019-05-13T19:56:33.521Z,3.97
2019-05-13T19:59:14.600Z,9.57
2019-05-13T20:01:43.701Z,7.63
2019-05-13T20:04:31.433Z,12.40
2019-05-13T20:07:32.569Z,9.63
2019-05-13T20:10:14.013Z,10.30
2019-05-13T20:12:54.037Z,8.17
2019-05-13T20:15:34.083Z,6.60
2019-05-13T20:18:14.566Z,4.23
2019-05-13T20:20:54.896Z,4.07
2019-05-13T20:23:35.300Z,4.27
2019-05-13T20:26:15.735Z,3.43
2019-05-13T20:28:55.789Z,3.97
2019-05-13T20:31:35.799Z,4.13
2019-05-13T20:34:16.230Z,3.80
2019-05-13T20:36:56.270Z,3.63
2019-05-13T20:39:36.363Z,2.57
2019-05-13T20:42:16.661Z,3.00
2019-05-13T20:44:56.630Z,2.73
2019-05-13T20:47:36.742Z,2.90
2019-05-13T20:50:17.063Z,4.50
2019-05-13T20:52:45.950Z,3.93
2019-05-13T20:55:26.068Z,4.40
2019-05-13T20:58:06.094Z,5.10
2019-05-13T21:00:46.019Z,7.20
2019-05-13T21:03:27.210Z,15.83
2019-05-13T21:06:07.673Z,16.63
2019-05-13T21:08:47.597Z,14.13
2019-05-13T21:11:27.863Z,13.00
2019-05-13T21:14:07.441Z,19.20
2019-05-13T21:16:48.011Z,14.53
2019-05-13T21:19:28.564Z,12.43
2019-05-13T21:22:09.270Z,12.20
2019-05-13T21:24:36.943Z,11.83
2019-05-13T21:27:24.077Z,13.03
2019-05-13T21:30:04.044Z,11.27
2019-05-13T21:32:43.938Z,7.20
2019-05-13T21:35:24.303Z,7.50
2019-05-13T21:38:04.003Z,6.67
2019-05-13T21:40:44.755Z,5.33
2019-05-13T21:43:24.474Z,6.17
2019-05-13T21:46:04.819Z,6.30
2019-05-13T21:48:44.835Z,7.13
2019-05-13T21:51:25.014Z,6.70
2019-05-13T21:54:05.357Z,22.37
2019-05-13T21:56:45.349Z,10.43
2019-05-13T21:59:28.604Z,7.43
2019-05-13T22:02:08.905Z,20.60
2019-05-13T22:04:49.078Z,9.63
2019-05-13T22:07:31.384Z,8.80
2019-05-13T22:10:10.659Z,13.60
2019-05-13T22:12:52.041Z,8.53
2019-05-13T22:15:32.472Z,12.80
2019-05-13T22:18:12.641Z,16.80
2019-05-13T22:20:53.675Z,19.10
2019-05-13T22:23:33.993Z,7.92
2019-05-13T22:26:14.732Z,7.10
2019-05-13T22:28:55.137Z,8.80
2019-05-13T22:31:35.526Z,3.70
2019-05-13T22:34:15.282Z,4.30
2019-05-13T22:36:55.493Z,3.57
2019-05-13T22:39:35.670Z,3.50
2019-05-13T22:42:15.458Z,6.40
2019-05-13T22:44:55.866Z,13.07
2019-05-13T22:47:35.789Z,11.60
2019-05-13T22:50:16.065Z,10.23
2019-05-13T22:52:55.755Z,14.03
2019-05-13T22:55:36.289Z,10.97
2019-05-13T22:58:16.307Z,10.55
2019-05-13T23:00:57.677Z,9.28
2019-05-13T23:03:38.612Z,5.62
2019-05-13T23:06:21.592Z,5.17
2019-05-13T23:09:02.222Z,8.15
2019-05-13T23:11:43.481Z,11.38
2019-05-13T23:14:23.423Z,9.67
2019-05-13T23:17:03.054Z,6.95
2019-05-13T23:19:43.634Z,6.60
2019-05-13T23:22:23.765Z,5.13
2019-05-13T23:25:04.774Z,6.08
2019-05-13T23:27:44.788Z,7.40
2019-05-13T23:30:25.291Z,7.60
2019-05-13T23:33:05.486Z,6.80
2019-05-13T23:35:45.457Z,3.90
2019-05-13T23:38:25.759Z,3.80
2019-05-13T23:41:05.913Z,4.92
2019-05-13T23:43:45.678Z,9.10
2019-05-13T23:46:25.929Z,8.78
2019-05-13T23:49:06.015Z,6.53
2019-05-13T23:51:46.502Z,5.42
2019-05-13T23:54:26.599Z,4.05
2019-05-13T23:57:06.594Z,4.97
2019-05-13T23:59:46.792Z,12.70
